sensor_id;sensor_type;location;lat;lon;timestamp;P1;durP1;ratioP1;P2;durP2;ratioP2
26562;SDS011;14217;50.986;5.826;2022-12-16T00:01:39;4.18;;;3.78;;
26562;SDS011;14217;50.986;5.826;2022-12-16T00:06:41;3.63;;;3.10;;
26562;SDS011;14217;50.986;5.826;2022-12-16T00:11:43;4.82;;;3.45;;
26562;SDS011;14217;50.986;5.826;2022-12-16T00:16:45;3.28;;;2.90;;
26562;SDS011;14217;50.986;5.826;2022-12-16T00:21:48;3.92;;;3.03;;
26562;SDS011;14217;50.986;5.826;2022-12-16T00:26:51;3.53;;;3.22;;
26562;SDS011;14217;50.986;5.826;2022-12-16T00:31:53;3.17;;;2.38;;
26562;SDS011;14217;50.986;5.826;2022-12-16T00:36:55;3.22;;;2.92;;
26562;SDS011;14217;50.986;5.826;2022-12-16T00:41:57;3.90;;;2.90;;
26562;SDS011;14217;50.986;5.826;2022-12-16T00:46:59;2.95;;;2.65;;
26562;SDS011;14217;50.986;5.826;2022-12-16T00:52:01;4.45;;;2.97;;
26562;SDS011;14217;50.986;5.826;2022-12-16T00:57:03;6.75;;;2.88;;
26562;SDS011;14217;50.986;5.826;2022-12-16T01:02:05;4.18;;;3.17;;
26562;SDS011;14217;50.986;5.826;2022-12-16T01:07:08;4.15;;;2.63;;
26562;SDS011;14217;50.986;5.826;2022-12-16T01:12:10;8.20;;;3.65;;
26562;SDS011;14217;50.986;5.826;2022-12-16T01:17:12;5.90;;;2.85;;
26562;SDS011;14217;50.986;5.826;2022-12-16T01:22:14;3.30;;;2.78;;
26562;SDS011;14217;50.986;5.826;2022-12-16T01:27:16;3.67;;;3.28;;
26562;SDS011;14217;50.986;5.826;2022-12-16T01:32:18;2.90;;;2.13;;
26562;SDS011;14217;50.986;5.826;2022-12-16T01:37:20;7.28;;;3.45;;
26562;SDS011;14217;50.986;5.826;2022-12-16T01:42:23;3.20;;;2.75;;
26562;SDS011;14217;50.986;5.826;2022-12-16T01:47:29;4.88;;;2.67;;
26562;SDS011;14217;50.986;5.826;2022-12-16T01:52:35;4.10;;;2.85;;
26562;SDS011;14217;50.986;5.826;2022-12-16T01:57:51;3.15;;;2.55;;
26562;SDS011;14217;50.986;5.826;2022-12-16T02:02:56;2.60;;;2.13;;
26562;SDS011;14217;50.986;5.826;2022-12-16T02:39:59;4.03;;;2.00;;
26562;SDS011;14217;50.986;5.826;2022-12-16T02:45:05;3.00;;;2.03;;
26562;SDS011;14217;50.986;5.826;2022-12-16T02:50:15;4.88;;;2.55;;
26562;SDS011;14217;50.986;5.826;2022-12-16T02:55:23;2.22;;;2.00;;
26562;SDS011;14217;50.986;5.826;2022-12-16T03:00:37;4.00;;;2.80;;
26562;SDS011;14217;50.986;5.826;2022-12-16T03:05:49;6.38;;;3.65;;
26562;SDS011;14217;50.986;5.826;2022-12-16T03:10:55;3.20;;;2.42;;
26562;SDS011;14217;50.986;5.826;2022-12-16T03:16:00;5.05;;;2.50;;
26562;SDS011;14217;50.986;5.826;2022-12-16T03:21:06;6.47;;;2.33;;
26562;SDS011;14217;50.986;5.826;2022-12-16T03:26:12;4.72;;;2.60;;
26562;SDS011;14217;50.986;5.826;2022-12-16T03:37:06;3.85;;;2.08;;
26562;SDS011;14217;50.986;5.826;2022-12-16T03:42:10;5.75;;;2.80;;
26562;SDS011;14217;50.986;5.826;2022-12-16T03:47:15;3.10;;;2.83;;
26562;SDS011;14217;50.986;5.826;2022-12-16T03:52:23;4.90;;;3.08;;
26562;SDS011;14217;50.986;5.826;2022-12-16T03:57:25;3.08;;;2.08;;
26562;SDS011;14217;50.986;5.826;2022-12-16T04:02:27;2.85;;;1.88;;
26562;SDS011;14217;50.986;5.826;2022-12-16T04:07:29;2.78;;;2.08;;
26562;SDS011;14217;50.986;5.826;2022-12-16T04:12:32;7.53;;;2.78;;
26562;SDS011;14217;50.986;5.826;2022-12-16T04:18:00;2.30;;;2.03;;
26562;SDS011;14217;50.986;5.826;2022-12-16T04:23:20;2.70;;;2.03;;
26562;SDS011;14217;50.986;5.826;2022-12-16T04:28:44;4.57;;;2.03;;
26562;SDS011;14217;50.986;5.826;2022-12-16T04:33:46;4.00;;;2.63;;
26562;SDS011;14217;50.986;5.826;2022-12-16T04:39:07;2.78;;;2.40;;
26562;SDS011;14217;50.986;5.826;2022-12-16T04:44:27;4.05;;;2.75;;
26562;SDS011;14217;50.986;5.826;2022-12-16T04:49:47;8.90;;;2.97;;
26562;SDS011;14217;50.986;5.826;2022-12-16T04:55:08;2.67;;;2.20;;
26562;SDS011;14217;50.986;5.826;2022-12-16T05:00:29;5.15;;;3.15;;
26562;SDS011;14217;50.986;5.826;2022-12-16T05:05:49;2.00;;;1.50;;
26562;SDS011;14217;50.986;5.826;2022-12-16T05:11:10;4.07;;;1.92;;
26562;SDS011;14217;50.986;5.826;2022-12-16T05:16:30;2.60;;;1.80;;
26562;SDS011;14217;50.986;5.826;2022-12-16T05:21:51;1.70;;;1.55;;
26562;SDS011;14217;50.986;5.826;2022-12-16T05:27:12;2.92;;;2.05;;
26562;SDS011;14217;50.986;5.826;2022-12-16T05:32:32;2.45;;;2.25;;
26562;SDS011;14217;50.986;5.826;2022-12-16T05:37:55;3.75;;;2.17;;
26562;SDS011;14217;50.986;5.826;2022-12-16T05:43:16;3.78;;;1.50;;
26562;SDS011;14217;50.986;5.826;2022-12-16T05:48:36;4.38;;;1.75;;
26562;SDS011;14217;50.986;5.826;2022-12-16T05:53:57;2.33;;;1.63;;
26562;SDS011;14217;50.986;5.826;2022-12-16T05:59:17;2.65;;;1.85;;
26562;SDS011;14217;50.986;5.826;2022-12-16T06:04:38;3.03;;;1.73;;
26562;SDS011;14217;50.986;5.826;2022-12-16T06:09:58;2.80;;;2.33;;
26562;SDS011;14217;50.986;5.826;2022-12-16T06:15:23;1.50;;;1.40;;
26562;SDS011;14217;50.986;5.826;2022-12-16T06:20:43;4.85;;;2.45;;
26562;SDS011;14217;50.986;5.826;2022-12-16T06:26:04;3.67;;;2.80;;
26562;SDS011;14217;50.986;5.826;2022-12-16T06:31:25;1.50;;;1.40;;
26562;SDS011;14217;50.986;5.826;2022-12-16T06:36:46;2.53;;;2.10;;
26562;SDS011;14217;50.986;5.826;2022-12-16T06:42:06;2.80;;;2.60;;
26562;SDS011;14217;50.986;5.826;2022-12-16T06:47:27;2.58;;;2.03;;
26562;SDS011;14217;50.986;5.826;2022-12-16T06:52:47;1.80;;;1.67;;
26562;SDS011;14217;50.986;5.826;2022-12-16T06:58:08;1.95;;;1.70;;
26562;SDS011;14217;50.986;5.826;2022-12-16T07:03:29;2.75;;;2.17;;
26562;SDS011;14217;50.986;5.826;2022-12-16T07:08:50;2.50;;;2.17;;
26562;SDS011;14217;50.986;5.826;2022-12-16T07:14:12;2.05;;;1.80;;
26562;SDS011;14217;50.986;5.826;2022-12-16T07:19:33;3.00;;;1.98;;
26562;SDS011;14217;50.986;5.826;2022-12-16T07:24:53;2.25;;;1.90;;
26562;SDS011;14217;50.986;5.826;2022-12-16T07:30:13;2.50;;;1.90;;
26562;SDS011;14217;50.986;5.826;2022-12-16T07:35:34;2.13;;;1.55;;
26562;SDS011;14217;50.986;5.826;2022-12-16T07:40:54;4.07;;;2.65;;
26562;SDS011;14217;50.986;5.826;2022-12-16T07:46:15;3.33;;;2.45;;
26562;SDS011;14217;50.986;5.826;2022-12-16T07:51:35;3.03;;;2.22;;
26562;SDS011;14217;50.986;5.826;2022-12-16T07:56:56;3.05;;;1.77;;
26562;SDS011;14217;50.986;5.826;2022-12-16T08:02:16;4.88;;;3.20;;
26562;SDS011;14217;50.986;5.826;2022-12-16T08:07:40;4.60;;;2.83;;
26562;SDS011;14217;50.986;5.826;2022-12-16T08:13:02;3.92;;;2.63;;
26562;SDS011;14217;50.986;5.826;2022-12-16T08:18:26;2.63;;;2.30;;
26562;SDS011;14217;50.986;5.826;2022-12-16T08:23:46;12.13;;;2.65;;
26562;SDS011;14217;50.986;5.826;2022-12-16T08:29:07;3.55;;;2.75;;
26562;SDS011;14217;50.986;5.826;2022-12-16T08:34:44;7.10;;;3.40;;
26562;SDS011;14217;50.986;5.826;2022-12-16T08:40:05;7.45;;;3.60;;
26562;SDS011;14217;50.986;5.826;2022-12-16T08:45:36;8.27;;;3.28;;
26562;SDS011;14217;50.986;5.826;2022-12-16T08:51:00;4.47;;;2.75;;
26562;SDS011;14217;50.986;5.826;2022-12-16T08:56:23;6.35;;;3.05;;
26562;SDS011;14217;50.986;5.826;2022-12-16T09:01:43;5.47;;;3.70;;
26562;SDS011;14217;50.986;5.826;2022-12-16T09:07:04;5.15;;;3.17;;
26562;SDS011;14217;50.986;5.826;2022-12-16T09:12:25;7.05;;;2.88;;
26562;SDS011;14217;50.986;5.826;2022-12-16T09:17:45;6.13;;;3.10;;
26562;SDS011;14217;50.986;5.826;2022-12-16T09:23:13;20.23;;;4.03;;
26562;SDS011;14217;50.986;5.826;2022-12-16T09:28:34;11.05;;;5.38;;
26562;SDS011;14217;50.986;5.826;2022-12-16T09:33:54;17.67;;;6.43;;
26562;SDS011;14217;50.986;5.826;2022-12-16T09:39:15;9.23;;;6.75;;
26562;SDS011;14217;50.986;5.826;2022-12-16T09:44:40;9.73;;;6.00;;
26562;SDS011;14217;50.986;5.826;2022-12-16T09:50:12;13.95;;;6.35;;
26562;SDS011;14217;50.986;5.826;2022-12-16T09:55:38;31.98;;;5.80;;
26562;SDS011;14217;50.986;5.826;2022-12-16T10:01:00;17.75;;;6.55;;
26562;SDS011;14217;50.986;5.826;2022-12-16T10:17:26;13.93;;;5.43;;
26562;SDS011;14217;50.986;5.826;2022-12-16T10:22:55;9.80;;;4.55;;
26562;SDS011;14217;50.986;5.826;2022-12-16T10:34:29;7.72;;;4.38;;
26562;SDS011;14217;50.986;5.826;2022-12-16T10:39:50;7.22;;;3.67;;
26562;SDS011;14217;50.986;5.826;2022-12-16T10:45:19;10.25;;;4.80;;
26562;SDS011;14217;50.986;5.826;2022-12-16T10:50:54;9.30;;;4.40;;
26562;SDS011;14217;50.986;5.826;2022-12-16T10:56:32;8.00;;;3.45;;
26562;SDS011;14217;50.986;5.826;2022-12-16T11:02:17;7.65;;;3.75;;
26562;SDS011;14217;50.986;5.826;2022-12-16T11:13:10;8.70;;;4.32;;
26562;SDS011;14217;50.986;5.826;2022-12-16T11:18:36;7.63;;;3.85;;
26562;SDS011;14217;50.986;5.826;2022-12-16T11:29:47;9.13;;;3.83;;
26562;SDS011;14217;50.986;5.826;2022-12-16T11:35:19;9.02;;;4.80;;
26562;SDS011;14217;50.986;5.826;2022-12-16T11:40:50;10.98;;;5.07;;
26562;SDS011;14217;50.986;5.826;2022-12-16T11:46:13;8.63;;;4.90;;
26562;SDS011;14217;50.986;5.826;2022-12-16T11:51:40;9.43;;;5.00;;
26562;SDS011;14217;50.986;5.826;2022-12-16T11:57:32;15.93;;;5.45;;
26562;SDS011;14217;50.986;5.826;2022-12-16T12:03:10;11.60;;;5.30;;
26562;SDS011;14217;50.986;5.826;2022-12-16T12:19:51;10.52;;;5.90;;
26562;SDS011;14217;50.986;5.826;2022-12-16T12:25:21;28.05;;;6.50;;
26562;SDS011;14217;50.986;5.826;2022-12-16T12:31:17;13.43;;;7.70;;
26562;SDS011;14217;50.986;5.826;2022-12-16T12:36:49;12.77;;;7.90;;
26562;SDS011;14217;50.986;5.826;2022-12-16T12:42:36;20.90;;;7.45;;
26562;SDS011;14217;50.986;5.826;2022-12-16T12:48:12;16.95;;;8.35;;
26562;SDS011;14217;50.986;5.826;2022-12-16T12:53:58;17.73;;;7.93;;
26562;SDS011;14217;50.986;5.826;2022-12-16T12:59:45;12.27;;;7.38;;
26562;SDS011;14217;50.986;5.826;2022-12-16T13:05:12;14.55;;;8.40;;
26562;SDS011;14217;50.986;5.826;2022-12-16T13:10:35;13.48;;;8.07;;
26562;SDS011;14217;50.986;5.826;2022-12-16T13:15:56;19.17;;;8.38;;
26562;SDS011;14217;50.986;5.826;2022-12-16T13:27:00;14.02;;;8.02;;
26562;SDS011;14217;50.986;5.826;2022-12-16T13:32:22;15.52;;;8.93;;
26562;SDS011;14217;50.986;5.826;2022-12-16T13:38:18;13.52;;;8.52;;
26562;SDS011;14217;50.986;5.826;2022-12-16T13:55:09;12.13;;;8.65;;
26562;SDS011;14217;50.986;5.826;2022-12-16T14:00:35;11.20;;;8.43;;
26562;SDS011;14217;50.986;5.826;2022-12-16T14:05:58;11.23;;;8.10;;
26562;SDS011;14217;50.986;5.826;2022-12-16T14:11:22;8.80;;;7.22;;
26562;SDS011;14217;50.986;5.826;2022-12-16T14:16:57;12.43;;;7.53;;
26562;SDS011;14217;50.986;5.826;2022-12-16T14:27:53;11.48;;;7.72;;
26562;SDS011;14217;50.986;5.826;2022-12-16T14:33:19;14.32;;;7.80;;
26562;SDS011;14217;50.986;5.826;2022-12-16T14:38:46;9.13;;;6.35;;
26562;SDS011;14217;50.986;5.826;2022-12-16T14:44:42;9.52;;;7.18;;
26562;SDS011;14217;50.986;5.826;2022-12-16T14:49:59;8.82;;;5.65;;
26562;SDS011;14217;50.986;5.826;2022-12-16T14:55:27;14.18;;;5.60;;
26562;SDS011;14217;50.986;5.826;2022-12-16T15:00:52;6.97;;;5.60;;
26562;SDS011;14217;50.986;5.826;2022-12-16T15:06:23;8.27;;;5.40;;
26562;SDS011;14217;50.986;5.826;2022-12-16T15:11:46;17.35;;;6.78;;
26562;SDS011;14217;50.986;5.826;2022-12-16T15:17:17;7.70;;;5.70;;
26562;SDS011;14217;50.986;5.826;2022-12-16T15:22:43;7.05;;;5.45;;
26562;SDS011;14217;50.986;5.826;2022-12-16T15:28:24;14.00;;;5.35;;
26562;SDS011;14217;50.986;5.826;2022-12-16T15:34:10;6.55;;;4.97;;
26562;SDS011;14217;50.986;5.826;2022-12-16T15:39:53;7.22;;;5.35;;
26562;SDS011;14217;50.986;5.826;2022-12-16T15:50:36;8.93;;;4.80;;
26562;SDS011;14217;50.986;5.826;2022-12-16T15:55:57;6.57;;;4.70;;
26562;SDS011;14217;50.986;5.826;2022-12-16T16:01:21;7.25;;;5.40;;
26562;SDS011;14217;50.986;5.826;2022-12-16T16:06:45;6.45;;;4.13;;
26562;SDS011;14217;50.986;5.826;2022-12-16T16:12:08;9.77;;;4.25;;
26562;SDS011;14217;50.986;5.826;2022-12-16T16:17:33;5.85;;;4.15;;
26562;SDS011;14217;50.986;5.826;2022-12-16T16:22:53;5.78;;;4.40;;
26562;SDS011;14217;50.986;5.826;2022-12-16T16:28:14;6.50;;;3.67;;
26562;SDS011;14217;50.986;5.826;2022-12-16T16:33:34;6.68;;;4.28;;
26562;SDS011;14217;50.986;5.826;2022-12-16T16:38:58;5.78;;;5.13;;
26562;SDS011;14217;50.986;5.826;2022-12-16T16:44:19;5.82;;;5.03;;
26562;SDS011;14217;50.986;5.826;2022-12-16T16:49:40;6.60;;;5.63;;
26562;SDS011;14217;50.986;5.826;2022-12-16T16:55:02;6.47;;;4.65;;
26562;SDS011;14217;50.986;5.826;2022-12-16T17:00:24;6.15;;;5.30;;
26562;SDS011;14217;50.986;5.826;2022-12-16T17:05:44;9.52;;;5.10;;
26562;SDS011;14217;50.986;5.826;2022-12-16T17:11:09;8.02;;;5.30;;
26562;SDS011;14217;50.986;5.826;2022-12-16T17:16:36;10.73;;;5.30;;
26562;SDS011;14217;50.986;5.826;2022-12-16T17:21:56;8.02;;;5.40;;
26562;SDS011;14217;50.986;5.826;2022-12-16T17:27:18;11.07;;;5.70;;
26562;SDS011;14217;50.986;5.826;2022-12-16T17:32:42;8.90;;;5.25;;
26562;SDS011;14217;50.986;5.826;2022-12-16T17:38:02;15.55;;;6.25;;
26562;SDS011;14217;50.986;5.826;2022-12-16T17:43:23;8.60;;;5.15;;
26562;SDS011;14217;50.986;5.826;2022-12-16T17:48:43;22.95;;;6.10;;
26562;SDS011;14217;50.986;5.826;2022-12-16T17:54:04;11.35;;;5.90;;
26562;SDS011;14217;50.986;5.826;2022-12-16T17:59:29;8.57;;;6.30;;
26562;SDS011;14217;50.986;5.826;2022-12-16T18:04:54;9.52;;;6.18;;
26562;SDS011;14217;50.986;5.826;2022-12-16T18:10:15;9.45;;;6.65;;
26562;SDS011;14217;50.986;5.826;2022-12-16T18:15:35;11.63;;;5.47;;
26562;SDS011;14217;50.986;5.826;2022-12-16T18:20:56;11.52;;;6.03;;
26562;SDS011;14217;50.986;5.826;2022-12-16T18:26:16;13.45;;;6.18;;
26562;SDS011;14217;50.986;5.826;2022-12-16T18:31:37;8.65;;;4.57;;
26562;SDS011;14217;50.986;5.826;2022-12-16T18:36:57;19.60;;;5.43;;
26562;SDS011;14217;50.986;5.826;2022-12-16T18:42:17;14.65;;;5.07;;
26562;SDS011;14217;50.986;5.826;2022-12-16T18:47:37;12.13;;;4.93;;
26562;SDS011;14217;50.986;5.826;2022-12-16T18:52:58;10.55;;;5.05;;
26562;SDS011;14217;50.986;5.826;2022-12-16T18:58:19;10.90;;;4.70;;
26562;SDS011;14217;50.986;5.826;2022-12-16T19:03:55;13.48;;;6.18;;
26562;SDS011;14217;50.986;5.826;2022-12-16T19:09:16;9.88;;;4.63;;
26562;SDS011;14217;50.986;5.826;2022-12-16T19:14:36;7.40;;;4.43;;
26562;SDS011;14217;50.986;5.826;2022-12-16T19:19:56;10.18;;;5.15;;
26562;SDS011;14217;50.986;5.826;2022-12-16T19:25:20;8.95;;;4.60;;
26562;SDS011;14217;50.986;5.826;2022-12-16T19:30:41;10.98;;;5.10;;
26562;SDS011;14217;50.986;5.826;2022-12-16T19:36:01;9.00;;;4.85;;
26562;SDS011;14217;50.986;5.826;2022-12-16T19:41:22;6.13;;;3.83;;
26562;SDS011;14217;50.986;5.826;2022-12-16T19:46:43;6.25;;;4.38;;
26562;SDS011;14217;50.986;5.826;2022-12-16T19:52:03;6.32;;;4.35;;
26562;SDS011;14217;50.986;5.826;2022-12-16T19:57:24;10.48;;;4.30;;
26562;SDS011;14217;50.986;5.826;2022-12-16T20:02:45;11.93;;;4.63;;
26562;SDS011;14217;50.986;5.826;2022-12-16T20:08:05;7.57;;;4.95;;
26562;SDS011;14217;50.986;5.826;2022-12-16T20:13:26;7.13;;;3.97;;
26562;SDS011;14217;50.986;5.826;2022-12-16T20:18:46;8.27;;;4.57;;
26562;SDS011;14217;50.986;5.826;2022-12-16T20:24:07;8.65;;;5.13;;
26562;SDS011;14217;50.986;5.826;2022-12-16T20:29:27;4.90;;;4.00;;
26562;SDS011;14217;50.986;5.826;2022-12-16T20:34:48;10.82;;;6.00;;
26562;SDS011;14217;50.986;5.826;2022-12-16T20:40:09;6.20;;;4.40;;
26562;SDS011;14217;50.986;5.826;2022-12-16T20:45:29;6.88;;;4.25;;
26562;SDS011;14217;50.986;5.826;2022-12-16T20:50:54;5.25;;;3.65;;
26562;SDS011;14217;50.986;5.826;2022-12-16T20:56:24;5.72;;;4.45;;
26562;SDS011;14217;50.986;5.826;2022-12-16T21:01:44;5.10;;;4.07;;
26562;SDS011;14217;50.986;5.826;2022-12-16T21:07:25;7.63;;;5.93;;
26562;SDS011;14217;50.986;5.826;2022-12-16T21:12:46;5.38;;;4.40;;
26562;SDS011;14217;50.986;5.826;2022-12-16T21:18:07;5.60;;;4.75;;
26562;SDS011;14217;50.986;5.826;2022-12-16T21:23:28;5.40;;;3.40;;
26562;SDS011;14217;50.986;5.826;2022-12-16T21:28:48;5.07;;;3.65;;
26562;SDS011;14217;50.986;5.826;2022-12-16T21:34:09;5.38;;;4.03;;
26562;SDS011;14217;50.986;5.826;2022-12-16T21:39:30;5.47;;;4.70;;
26562;SDS011;14217;50.986;5.826;2022-12-16T21:44:50;7.90;;;3.83;;
26562;SDS011;14217;50.986;5.826;2022-12-16T21:50:11;5.22;;;4.07;;
26562;SDS011;14217;50.986;5.826;2022-12-16T21:55:31;3.67;;;3.22;;
26562;SDS011;14217;50.986;5.826;2022-12-16T22:00:54;8.30;;;5.50;;
26562;SDS011;14217;50.986;5.826;2022-12-16T22:06:15;10.45;;;4.13;;
26562;SDS011;14217;50.986;5.826;2022-12-16T22:11:36;3.88;;;2.72;;
26562;SDS011;14217;50.986;5.826;2022-12-16T22:16:56;5.88;;;3.63;;
26562;SDS011;14217;50.986;5.826;2022-12-16T22:22:16;4.60;;;3.63;;
26562;SDS011;14217;50.986;5.826;2022-12-16T22:27:37;5.45;;;3.55;;
26562;SDS011;14217;50.986;5.826;2022-12-16T22:32:58;7.30;;;3.97;;
26562;SDS011;14217;50.986;5.826;2022-12-16T22:38:18;5.07;;;3.63;;
26562;SDS011;14217;50.986;5.826;2022-12-16T22:43:39;6.13;;;3.88;;
26562;SDS011;14217;50.986;5.826;2022-12-16T22:49:00;5.35;;;3.63;;
26562;SDS011;14217;50.986;5.826;2022-12-16T22:54:21;5.85;;;3.55;;
26562;SDS011;14217;50.986;5.826;2022-12-16T22:59:41;4.68;;;3.78;;
26562;SDS011;14217;50.986;5.826;2022-12-16T23:05:02;8.10;;;4.15;;
26562;SDS011;14217;50.986;5.826;2022-12-16T23:10:28;4.60;;;3.58;;
26562;SDS011;14217;50.986;5.826;2022-12-16T23:15:48;5.30;;;3.75;;
26562;SDS011;14217;50.986;5.826;2022-12-16T23:21:13;8.50;;;3.38;;
26562;SDS011;14217;50.986;5.826;2022-12-16T23:26:37;4.68;;;4.07;;
26562;SDS011;14217;50.986;5.826;2022-12-16T23:31:57;4.28;;;3.80;;
26562;SDS011;14217;50.986;5.826;2022-12-16T23:37:18;4.38;;;3.90;;
26562;SDS011;14217;50.986;5.826;2022-12-16T23:42:38;3.92;;;3.63;;
26562;SDS011;14217;50.986;5.826;2022-12-16T23:47:59;4.00;;;3.60;;
26562;SDS011;14217;50.986;5.826;2022-12-16T23:53:20;5.60;;;4.43;;
26562;SDS011;14217;50.986;5.826;2022-12-16T23:58:41;6.75;;;3.97;;
